Time;durP1;ratioP1;P1;durP2;ratioP2;P2;SDS_P1;SDS_P2;PMS_P1;PMS_P2;Temp;Humidity;BMP_temperature;BMP_pressure;BME280_temperature;BME280_humidity;BME280_pressure;Samples;Min_cycle;Max_cycle;Signal;HPM_P1;HPM_P2
2022/02/13 07:22:35;;;;;;;;;42.25;37.75;;;;;-2.07;100.00;103084.09;3727979;38;32426;-62
2022/02/13 07:25:08;;;;;;;;;39.00;33.75;;;;;-1.95;100.00;103074.94;3727881;37;21102;-62
2022/02/13 07:27:36;;;;;;;;;4.00;1.00;;;;;-1.88;100.00;103072.09;3726953;38;21142;-61
2022/02/13 07:30:06;;;;;;;;;34.75;30.75;;;;;-1.79;100.00;103079.81;3727862;37;21156;-60
2022/02/13 07:32:33;;;;;;;;;34.50;30.50;;;;;-1.66;100.00;103072.38;3727899;37;21220;-62
2022/02/13 07:35:00;;;;;;;;;38.75;34.75;;;;;-1.58;100.00;103077.47;3727192;37;21227;-61
2022/02/13 07:37:29;;;;;;;;;38.00;33.00;;;;;-1.53;100.00;103067.53;3727529;38;21406;-62
2022/02/13 07:39:56;;;;;;;;;44.00;38.75;;;;;-1.41;100.00;103067.19;3727549;37;21124;-63
2022/02/13 07:42:23;;;;;;;;;37.50;32.75;;;;;-1.32;100.00;103069.56;3727596;37;21221;-64
2022/02/13 07:44:51;;;;;;;;;47.00;40.00;;;;;-1.23;100.00;103061.34;3726804;38;21341;-63
2022/02/13 07:47:24;;;;;;;;;47.00;36.50;;;;;-1.02;100.00;103073.94;3727499;37;21200;-64
2022/02/13 07:49:53;;;;;;;;;36.00;33.25;;;;;-0.88;100.00;103064.66;3727803;37;21194;-65
2022/02/13 07:52:22;;;;;;;;;45.00;38.75;;;;;-0.72;100.00;103060.59;3727703;37;21185;-69
2022/02/13 07:54:49;;;;;;;;;40.25;37.50;;;;;-0.66;100.00;103063.06;3727950;37;21113;-63
2022/02/13 07:57:18;;;;;;;;;41.00;37.25;;;;;-0.64;100.00;103058.56;3728124;38;21097;-63
2022/02/13 07:59:45;;;;;;;;;40.25;35.75;;;;;-0.53;100.00;103044.91;3728058;38;21187;-62
2022/02/13 08:02:13;;;;;;;;;44.75;38.25;;;;;-0.41;100.00;103050.66;3728136;37;21163;-67
2022/02/13 08:04:43;;;;;;;;;45.00;37.50;;;;;-0.39;100.00;103029.31;3727747;37;21151;-61
2022/02/13 08:07:11;;;;;;;;;41.00;36.60;;;;;-0.17;100.00;103042.78;3684168;38;1641345;-62
2022/02/13 08:09:40;;;;;;;;;35.00;34.00;;;;;-0.01;100.00;103034.19;3729197;38;18282;-62
2022/02/13 08:12:09;;;;;;;;;35.75;33.75;;;;;0.14;100.00;103030.06;3728681;37;21178;-62
2022/02/13 08:14:37;;;;;;;;;39.50;36.25;;;;;0.31;100.00;103027.66;3727530;37;21109;-61
2022/02/13 08:17:05;;;;;;;;;41.00;35.50;;;;;0.30;100.00;103028.59;3727240;38;21171;-62
2022/02/13 08:19:35;;;;;;;;;37.00;32.75;;;;;0.47;100.00;103019.09;3727227;37;21100;-62
2022/02/13 08:22:07;;;;;;;;;43.50;39.00;;;;;0.50;100.00;103003.00;3726712;38;20919;-61
2022/02/13 08:24:37;;;;;;;;;48.00;40.75;;;;;0.70;100.00;103015.53;3727897;38;21179;-62
2022/02/13 08:27:06;;;;;;;;;40.25;36.00;;;;;0.84;100.00;103016.72;3727917;37;21208;-62
2022/02/13 08:29:34;;;;;;;;;38.75;36.50;;;;;0.95;100.00;103006.50;3727991;37;20949;-62
2022/02/13 08:32:03;;;;;;;;;38.00;36.50;;;;;1.09;100.00;103008.59;3727657;37;21060;-62
2022/02/13 08:34:31;;;;;;;;;48.25;39.25;;;;;1.23;100.00;103003.56;3727755;37;20956;-62
2022/02/13 08:36:58;;;;;;;;;38.50;34.50;;;;;1.38;100.00;103002.06;3728033;37;21204;-62
2022/02/13 08:39:26;;;;;;;;;33.75;31.50;;;;;1.54;100.00;103002.28;3727850;38;21008;-62
2022/02/13 08:41:55;;;;;;;;;35.75;33.75;;;;;1.61;100.00;102991.25;3727726;37;21127;-62
2022/02/13 08:44:22;;;;;;;;;35.00;32.50;;;;;1.71;100.00;102988.19;3728042;37;20975;-62
2022/02/13 08:46:50;;;;;;;;;25.00;23.75;;;;;1.94;100.00;102985.38;3727994;38;21005;-62
2022/02/13 08:49:18;;;;;;;;;32.75;31.25;;;;;2.00;100.00;102987.78;3728016;37;21005;-62
2022/02/13 08:51:46;;;;;;;;;35.50;31.75;;;;;2.09;100.00;102965.97;3727998;37;20978;-61
2022/02/13 08:54:14;;;;;;;;;31.25;30.00;;;;;2.31;100.00;102973.84;3727511;37;21181;-61
2022/02/13 08:56:43;;;;;;;;;30.75;28.25;;;;;2.45;100.00;102978.56;3727999;37;20942;-62
2022/02/13 08:59:12;;;;;;;;;18.50;15.50;;;;;2.51;100.00;102968.44;3727668;37;20975;-63
2022/02/13 09:01:44;;;;;;;;;26.25;25.50;;;;;2.72;100.00;102977.22;3728183;37;20877;-62
2022/02/13 09:04:12;;;;;;;;;27.50;24.50;;;;;2.78;100.00;102973.41;3730869;37;21183;-63
2022/02/13 09:06:41;;;;;;;;;20.75;18.50;;;;;2.85;100.00;102956.97;3734634;38;20880;-63
2022/02/13 09:09:10;;;;;;;;;15.25;14.75;;;;;2.89;100.00;102961.25;3732617;37;20959;-64
2022/02/13 09:11:41;;;;;;;;;22.50;19.25;;;;;3.06;100.00;102962.22;3728172;37;20988;-64
2022/02/13 09:14:09;;;;;;;;;19.50;19.25;;;;;3.20;100.00;102949.00;3728122;38;20936;-64
2022/02/13 09:16:38;;;;;;;;;14.75;13.75;;;;;3.26;100.00;102930.81;3728650;37;20911;-63
2022/02/13 09:19:07;;;;;;;;;13.00;11.75;;;;;3.47;100.00;102955.63;3728963;38;20858;-63
2022/02/13 09:21:35;;;;;;;;;14.75;14.75;;;;;3.59;100.00;102946.97;3728204;38;21063;-62
2022/02/13 09:24:03;;;;;;;;;16.50;15.50;;;;;3.66;100.00;102945.66;3728009;37;20954;-62
2022/02/13 09:26:31;;;;;;;;;15.50;14.75;;;;;3.69;100.00;102944.63;3727984;37;21113;-63
2022/02/13 09:29:00;;;;;;;;;16.75;16.25;;;;;3.74;100.00;102957.78;3728274;38;21138;-63
2022/02/13 09:31:27;;;;;;;;;17.50;16.25;;;;;3.84;100.00;102940.28;3727965;37;20945;-63
2022/02/13 09:33:55;;;;;;;;;16.75;16.00;;;;;3.90;100.00;102930.09;3727877;37;20919;-63
2022/02/13 09:36:23;;;;;;;;;16.00;13.25;;;;;3.97;100.00;102934.19;3727976;37;20967;-61
2022/02/13 09:38:53;;;;;;;;;14.50;13.50;;;;;3.92;100.00;102914.81;3727981;38;20880;-62
2022/02/13 09:41:24;;;;;;;;;16.00;13.75;;;;;3.99;100.00;102921.56;3727904;37;20954;-63
2022/02/13 09:43:54;;;;;;;;;18.75;16.75;;;;;4.02;100.00;102922.38;3726737;37;20926;-63
2022/02/13 09:46:23;;;;;;;;;17.25;14.00;;;;;4.05;100.00;102908.81;3728211;38;20890;-63
2022/02/13 09:48:52;;;;;;;;;14.50;14.00;;;;;4.12;100.00;102903.03;3732632;38;20829;-63
2022/02/13 09:51:19;;;;;;;;;14.00;13.25;;;;;3.95;100.00;102898.59;3729945;37;20909;-63
2022/02/13 09:53:46;;;;;;;;;16.00;15.00;;;;;3.94;100.00;102895.97;3727556;37;21107;-64
2022/02/13 09:56:14;;;;;;;;;14.50;13.50;;;;;3.78;100.00;102887.91;3728279;37;20925;-63
2022/02/13 09:58:49;;;;;;;;;14.25;12.25;;;;;3.95;100.00;102895.91;3728149;37;20954;-63
2022/02/13 10:01:17;;;;;;;;;15.25;14.00;;;;;4.10;100.00;102880.81;3727481;38;20891;-64
2022/02/13 10:03:46;;;;;;;;;16.25;14.00;;;;;4.24;100.00;102874.66;3727126;38;20911;-64
2022/02/13 10:06:23;;;;;;;;;18.75;17.00;;;;;4.24;100.00;102853.19;3727029;37;20980;-63
2022/02/13 10:08:54;;;;;;;;;16.50;16.00;;;;;4.45;100.00;102854.66;3727444;38;20859;-62
2022/02/13 10:11:32;;;;;;;;;12.25;12.25;;;;;4.43;100.00;102861.94;3727855;37;20795;-62
2022/02/13 10:14:12;;;;;;;;;13.25;12.50;;;;;4.59;100.00;102851.19;3728078;38;20822;-64
2022/02/13 10:16:46;;;;;;;;;17.25;17.00;;;;;4.72;100.00;102851.31;3728135;37;20740;-64
2022/02/13 10:19:22;;;;;;;;;10.75;9.00;;;;;4.80;100.00;102838.34;3727977;38;20820;-64
2022/02/13 10:22:02;;;;;;;;;12.00;10.50;;;;;4.50;100.00;102831.13;3727607;37;21005;-62
2022/02/13 10:24:34;;;;;;;;;12.25;11.25;;;;;4.50;100.00;102827.59;3727669;37;20962;-62
2022/02/13 10:27:08;;;;;;;;;14.25;14.25;;;;;4.48;100.00;102826.81;3727998;38;21032;-63
2022/02/13 10:29:39;;;;;;;;;9.00;8.25;;;;;4.58;100.00;102830.69;3728111;38;20855;-63
2022/02/13 10:32:13;;;;;;;;;19.25;14.50;;;;;4.80;100.00;102822.22;3727501;37;20750;-62
2022/02/13 10:34:58;;;;;;;;;12.25;10.25;;;;;4.82;100.00;102823.00;3727480;37;20754;-62
2022/02/13 10:38:00;;;;;;;;;15.25;14.75;;;;;4.79;100.00;102799.03;3727521;38;20981;-63
2022/02/13 10:40:29;;;;;;;;;15.00;13.50;;;;;5.03;100.00;102811.00;3728056;37;20987;-64
2022/02/13 10:43:09;;;;;;;;;12.00;12.00;;;;;5.11;100.00;102811.41;3728642;37;20691;-65
2022/02/13 10:45:41;;;;;;;;;16.75;16.00;;;;;5.17;100.00;102807.47;3727603;37;20787;-62
2022/02/13 10:48:11;;;;;;;;;14.50;13.75;;;;;5.20;100.00;102794.69;3727387;37;20831;-63
2022/02/13 10:50:43;;;;;;;;;16.00;14.00;;;;;5.26;100.00;102794.31;3727596;37;20931;-62
2022/02/13 10:53:14;;;;;;;;;19.00;19.00;;;;;5.38;100.00;102791.84;3727621;37;20739;-63
2022/02/13 10:55:43;;;;;;;;;12.25;11.25;;;;;5.43;100.00;102800.47;3726719;37;21013;-63
2022/02/13 10:58:13;;;;;;;;;12.25;10.50;;;;;5.40;100.00;102769.31;3727143;38;20796;-63
2022/02/13 11:00:42;;;;;;;;;12.50;12.00;;;;;5.50;100.00;102785.72;3727590;37;20702;-62
2022/02/13 11:03:09;;;;;;;;;12.25;10.25;;;;;5.55;100.00;102779.09;3727407;37;20835;-62
2022/02/13 11:05:40;;;;;;;;;12.25;12.25;;;;;5.59;100.00;102769.03;3727846;37;20851;-61
2022/02/13 11:08:14;;;;;;;;;13.00;11.00;;;;;5.72;100.00;102761.87;3728114;37;20764;-63
2022/02/13 11:10:47;;;;;;;;;12.00;10.50;;;;;5.63;98.59;102747.25;3728192;37;20914;-63
2022/02/13 11:13:23;;;;;;;;;10.25;9.50;;;;;5.71;97.33;102753.94;3728046;37;20789;-64
2022/02/13 11:15:52;;;;;;;;;16.25;13.75;;;;;5.70;96.92;102753.09;3728082;38;20785;-64
2022/02/13 11:18:30;;;;;;;;;11.50;11.00;;;;;5.65;95.29;102742.63;3728218;37;20924;-62
2022/02/13 11:21:00;;;;;;;;;10.75;10.00;;;;;5.63;93.69;102739.19;3728013;37;20769;-62
2022/02/13 11:23:31;;;;;;;;;17.50;12.50;;;;;5.51;92.00;102745.34;3727878;37;20761;-64
2022/02/13 11:26:03;;;;;;;;;8.25;7.75;;;;;5.69;93.13;102731.69;3728236;37;20943;-64
2022/02/13 11:29:03;;;;;;;;;10.50;9.75;;;;;5.68;92.00;102720.09;3728352;37;20713;-64
2022/02/13 11:31:42;;;;;;;;;9.00;9.00;;;;;5.71;89.90;102714.50;3729012;37;20675;-64
2022/02/13 11:34:35;;;;;;;;;10.00;10.00;;;;;5.76;89.50;102706.12;3728685;37;20887;-62
2022/02/13 11:37:11;;;;;;;;;11.50;9.25;;;;;5.80;89.08;102704.97;3728926;37;20827;-63
2022/02/13 11:39:45;;;;;;;;;14.75;10.25;;;;;5.84;89.76;102706.50;3732543;37;20786;-63
2022/02/13 11:42:19;;;;;;;;;12.00;11.25;;;;;5.92;89.65;102701.50;3730754;38;20619;-63
2022/02/13 11:45:00;;;;;;;;;11.75;11.25;;;;;5.93;88.45;102698.72;3727929;38;20982;-64
2022/02/13 11:47:41;;;;;;;;;11.50;10.50;;;;;5.86;87.89;102691.13;3727953;38;21023;-63
2022/02/13 11:50:15;;;;;;;;;8.75;7.50;;;;;5.87;89.17;102676.72;3727208;37;20671;-64
2022/02/13 11:53:08;;;;;;;;;21.50;14.25;;;;;5.92;90.16;102678.19;3727220;38;20844;-64
2022/02/13 11:55:37;;;;;;;;;12.00;11.25;;;;;5.97;90.54;102673.38;3728012;38;20682;-62
2022/02/13 11:58:13;;;;;;;;;13.75;11.50;;;;;5.75;91.43;102666.78;3728302;37;20664;-62
2022/02/13 12:00:49;;;;;;;;;11.00;8.75;;;;;5.82;90.27;102660.03;3728280;38;20714;-64
2022/02/13 12:03:25;;;;;;;;;14.00;14.00;;;;;5.79;90.90;102653.03;3728016;38;20680;-64
2022/02/13 12:06:28;;;;;;;;;13.25;12.75;;;;;5.97;91.22;102653.69;3728279;38;20915;-63
2022/02/13 12:09:05;;;;;;;;;14.75;14.75;;;;;5.95;91.50;102653.78;3725298;37;20754;-63
2022/02/13 12:11:42;;;;;;;;;17.25;15.75;;;;;6.10;92.68;102651.03;3725250;37;20600;-64
2022/02/13 12:14:23;;;;;;;;;16.00;14.00;;;;;6.22;92.35;102645.72;3725523;38;20609;-64
2022/02/13 12:16:59;;;;;;;;;15.25;13.50;;;;;6.30;91.45;102640.63;3726556;37;20889;-63
2022/02/13 12:19:35;;;;;;;;;16.50;16.50;;;;;6.18;90.15;102624.50;3724743;37;20614;-63
2022/02/13 12:22:11;;;;;;;;;15.75;15.75;;;;;6.22;89.34;102623.34;3725151;38;20792;-62
2022/02/13 12:24:40;;;;;;;;;14.50;13.25;;;;;6.19;88.93;102636.97;3725021;37;20994;-62
2022/02/13 12:27:09;;;;;;;;;12.25;12.00;;;;;6.09;89.54;102623.31;3725136;37;20787;-64
2022/02/13 12:29:50;;;;;;;;;14.50;11.50;;;;;6.11;89.01;102617.81;3725287;37;20776;-63
2022/02/13 12:32:19;;;;;;;;;11.75;11.00;;;;;6.23;86.08;102609.78;3724734;37;20728;-62
2022/02/13 12:34:56;;;;;;;;;9.50;9.50;;;;;6.34;82.88;102610.84;3725287;38;20750;-63
2022/02/13 12:37:50;;;;;;;;;9.00;9.00;;;;;6.26;81.54;102612.22;3725184;37;20691;-62
2022/02/13 12:40:23;;;;;;;;;14.50;13.50;;;;;6.33;82.69;102612.66;3725125;37;20997;-63
2022/02/13 12:42:53;;;;;;;;;11.75;11.75;;;;;6.29;83.01;102603.09;3725072;38;20766;-63
2022/02/13 12:45:30;;;;;;;;;13.00;11.25;;;;;6.41;82.85;102607.62;3724736;37;20716;-65
2022/02/13 12:48:21;;;;;;;;;12.50;12.50;;;;;6.42;82.65;102593.22;3725179;38;20719;-64
2022/02/13 12:51:00;;;;;;;;;17.75;17.75;;;;;6.43;81.83;102597.62;3725273;37;20775;-63
2022/02/13 12:53:31;;;;;;;;;10.75;9.75;;;;;6.39;79.67;102592.56;3724623;38;20751;-63
2022/02/13 12:56:05;;;;;;;;;10.25;10.25;;;;;6.37;78.42;102591.81;3724577;37;20762;-62
2022/02/13 12:58:36;;;;;;;;;12.50;11.75;;;;;6.42;79.01;102595.03;3724685;38;20741;-62
2022/02/13 13:01:05;;;;;;;;;14.00;13.75;;;;;6.44;78.65;102587.72;3724763;37;20764;-62
2022/02/13 13:03:34;;;;;;;;;12.75;11.25;;;;;6.25;80.12;102586.31;3724573;37;20880;-62
2022/02/13 13:06:04;;;;;;;;;10.75;10.00;;;;;6.19;79.62;102583.22;3724691;37;20747;-62
2022/02/13 13:08:46;;;;;;;;;10.75;10.50;;;;;6.11;80.24;102581.06;3724318;37;20662;-62
2022/02/13 13:11:32;;;;;;;;;13.25;13.00;;;;;6.25;79.83;102572.87;3726429;38;20640;-62
2022/02/13 13:14:09;;;;;;;;;12.50;12.50;;;;;6.10;81.04;102571.25;3725677;38;20730;-63
2022/02/13 13:16:37;;;;;;;;;12.50;12.25;;;;;6.13;81.47;102575.56;3728080;37;20883;-63
2022/02/13 13:19:05;;;;;;;;;13.50;10.75;;;;;6.19;80.56;102564.38;3725958;37;20922;-62
2022/02/13 13:21:53;;;;;;;;;3.50;3.00;;;;;6.20;78.59;102566.13;3725162;38;20838;-63
2022/02/13 13:24:23;;;;;;;;;13.00;12.00;;;;;6.13;78.63;102556.75;3725186;38;20742;-63
2022/02/13 13:26:59;;;;;;;;;12.50;11.00;;;;;6.23;78.61;102560.53;3725161;38;20707;-62
2022/02/13 13:29:39;;;;;;;;;8.00;6.50;;;;;6.10;78.25;102563.19;3724869;38;20601;-62
2022/02/13 13:32:30;;;;;;;;;15.00;12.50;;;;;6.25;78.58;102559.41;3724509;38;20744;-63
2022/02/13 13:34:58;;;;;;;;;12.50;12.25;;;;;6.39;78.12;102562.97;3725359;38;20486;-62
2022/02/13 13:37:46;;;;;;;;;10.25;9.75;;;;;6.42;76.79;102557.38;3725442;37;20461;-61
2022/02/13 13:40:22;;;;;;;;;11.50;10.25;;;;;6.36;76.49;102555.97;3725180;37;20639;-61
2022/02/13 13:43:18;;;;;;;;;11.00;9.50;;;;;6.21;77.94;102543.62;3725587;37;20599;-62
2022/02/13 13:45:46;;;;;;;;;9.00;9.00;;;;;6.20;78.15;102540.09;3726204;38;20702;-62
2022/02/13 13:48:17;;;;;;;;;10.25;9.75;;;;;6.13;77.73;102551.38;3724989;37;20506;-61
2022/02/13 13:50:48;;;;;;;;;12.50;9.75;;;;;6.05;76.58;102548.34;3724962;37;20467;-61
2022/02/13 13:53:19;;;;;;;;;9.00;9.00;;;;;6.02;76.76;102541.34;3724985;37;20716;-62
2022/02/13 13:55:48;;;;;;;;;10.00;9.25;;;;;5.98;76.74;102543.38;3729110;38;20425;-60
2022/02/13 13:58:17;;;;;;;;;7.75;6.75;;;;;6.01;75.87;102533.41;3731478;37;20489;-60
2022/02/13 14:00:48;;;;;;;;;9.00;9.00;;;;;6.02;75.64;102527.91;3733924;38;20530;-60
2022/02/13 14:03:19;;;;;;;;;7.25;7.25;;;;;6.00;75.89;102527.16;3730665;37;20401;-61
2022/02/13 14:05:47;;;;;;;;;9.75;9.25;;;;;5.92;76.34;102518.75;3732843;37;20403;-61
2022/02/13 14:08:15;;;;;;;;;13.75;12.25;;;;;5.89;76.44;102525.22;3725455;37;20393;-62
2022/02/13 14:10:44;;;;;;;;;11.00;10.25;;;;;5.77;76.27;102520.63;3725642;37;20552;-61
2022/02/13 14:13:13;;;;;;;;;8.50;7.75;;;;;5.75;75.59;102519.03;3725286;38;20650;-60
2022/02/13 14:15:42;;;;;;;;;6.00;5.50;;;;;5.73;74.53;102516.44;3725523;38;20614;-61
2022/02/13 14:18:10;;;;;;;;;6.75;6.25;;;;;5.71;74.47;102518.41;3725615;37;20534;-61
2022/02/13 14:20:38;;;;;;;;;11.00;9.75;;;;;5.61;75.17;102523.53;3725327;37;20573;-61
2022/02/13 14:23:12;;;;;;;;;9.75;9.75;;;;;5.62;76.05;102513.66;3725060;38;20519;-62
2022/02/13 14:25:39;;;;;;;;;9.00;9.00;;;;;5.53;76.64;102519.62;3724525;38;20513;-63
2022/02/13 14:28:06;;;;;;;;;11.75;11.75;;;;;5.37;77.87;102511.72;3724571;38;20449;-63
2022/02/13 14:30:34;;;;;;;;;10.25;10.25;;;;;5.26;78.63;102496.34;3723981;37;20514;-62
2022/02/13 14:33:06;;;;;;;;;12.75;11.00;;;;;5.22;79.06;102504.69;3724189;37;20532;-62
2022/02/13 14:35:34;;;;;;;;;11.00;11.00;;;;;5.06;80.20;102496.81;3723702;38;20653;-62
2022/02/13 14:38:02;;;;;;;;;12.50;11.50;;;;;4.87;81.08;102473.00;3724122;37;20492;-60
2022/02/13 14:40:30;;;;;;;;;11.75;11.00;;;;;4.95;80.93;102494.81;3724131;37;20493;-62
2022/02/13 14:42:57;;;;;;;;;12.00;11.50;;;;;4.86;82.20;102491.88;3723876;37;20393;-63
2022/02/13 14:45:31;;;;;;;;;12.00;11.75;;;;;4.77;82.74;102487.09;3723947;37;20368;-62
2022/02/13 14:48:02;;;;;;;;;9.75;9.25;;;;;4.76;83.47;102488.06;3724366;38;20469;-61
2022/02/13 14:50:31;;;;;;;;;10.25;9.50;;;;;4.76;84.24;102477.34;3724704;37;20665;-62
2022/02/13 14:53:00;;;;;;;;;11.25;11.25;;;;;4.59;84.74;102473.94;3724777;37;20430;-61
2022/02/13 14:55:27;;;;;;;;;14.50;12.25;;;;;4.60;85.84;102472.12;3724084;38;20401;-61
2022/02/13 14:57:54;;;;;;;;;13.25;12.75;;;;;4.54;86.19;102478.72;3723870;37;20372;-61
2022/02/13 15:00:22;;;;;;;;;19.50;17.50;;;;;4.46;87.84;102477.50;3724154;38;20387;-62
2022/02/13 15:02:49;;;;;;;;;17.25;15.00;;;;;4.33;88.76;102480.94;3724639;37;20502;-62
2022/02/13 15:05:18;;;;;;;;;15.00;14.00;;;;;4.25;89.21;102475.19;3724732;37;20414;-62
2022/02/13 15:07:45;;;;;;;;;15.25;15.25;;;;;4.27;89.49;102475.09;3724961;37;20362;-62
2022/02/13 15:10:12;;;;;;;;;18.50;15.50;;;;;4.21;90.27;102468.31;3724836;38;20459;-62
2022/02/13 15:12:39;;;;;;;;;14.75;12.00;;;;;4.20;89.94;102471.09;3724665;37;20465;-59
2022/02/13 15:15:08;;;;;;;;;14.00;14.00;;;;;4.10;90.72;102462.78;3725117;37;20373;-60
2022/02/13 15:17:35;;;;;;;;;14.75;14.25;;;;;3.97;90.99;102451.97;3724319;38;20457;-59
2022/02/13 15:20:04;;;;;;;;;12.75;12.75;;;;;4.04;90.71;102464.97;3723999;37;20655;-58
2022/02/13 15:22:32;;;;;;;;;9.75;9.50;;;;;3.93;90.16;102458.47;3723805;37;20393;-59
2022/02/13 15:25:00;;;;;;;;;12.50;12.25;;;;;3.87;90.28;102450.81;3724517;37;20461;-57
2022/02/13 15:27:28;;;;;;;;;11.00;11.00;;;;;3.76;91.13;102455.94;3724459;38;20448;-58
2022/02/13 15:29:57;;;;;;;;;13.25;12.75;;;;;3.56;93.05;102446.47;3724166;37;20468;-60
2022/02/13 15:32:25;;;;;;;;;14.25;13.25;;;;;3.63;94.56;102463.87;3724504;38;20439;-58
2022/02/13 15:34:52;;;;;;;;;17.50;13.75;;;;;3.49;95.69;102465.66;3724851;37;20307;-58
2022/02/13 15:37:20;;;;;;;;;17.00;15.50;;;;;3.47;95.54;102464.88;3724262;37;20296;-59
2022/02/13 15:39:49;;;;;;;;;12.25;12.00;;;;;3.39;95.46;102459.97;3724679;37;20450;-59
2022/02/13 15:42:19;;;;;;;;;13.75;13.50;;;;;3.28;95.64;102446.38;3724480;37;20324;-59
2022/02/13 15:44:46;;;;;;;;;14.50;13.75;;;;;3.28;96.61;102457.94;3724889;37;20415;-59
2022/02/13 15:47:15;;;;;;;;;17.50;16.75;;;;;3.23;96.41;102454.66;3724916;38;20430;-60
2022/02/13 15:49:42;;;;;;;;;23.75;21.50;;;;;3.18;96.08;102455.88;3724974;37;20369;-59
2022/02/13 15:52:10;;;;;;;;;22.00;16.50;;;;;3.11;96.77;102454.56;3724460;38;20431;-58
2022/02/13 15:54:38;;;;;;;;;20.25;20.00;;;;;3.03;97.01;102456.81;3723670;38;20432;-58
2022/02/13 15:57:07;;;;;;;;;18.00;16.75;;;;;2.92;97.97;102460.94;3724577;37;20383;-60
2022/02/13 15:59:36;;;;;;;;;22.25;20.75;;;;;2.82;98.98;102459.75;3724152;37;20289;-60
2022/02/13 16:02:05;;;;;;;;;18.50;17.00;;;;;2.84;100.00;102457.84;3723836;38;21345;-61
2022/02/13 16:04:35;;;;;;;;;20.00;19.50;;;;;2.81;100.00;102451.81;3723748;38;21529;-59
2022/02/13 16:07:03;;;;;;;;;22.25;18.50;;;;;2.77;100.00;102458.28;3723802;37;21513;-59
2022/02/13 16:09:31;;;;;;;;;20.25;19.25;;;;;2.66;100.00;102450.87;3723848;38;20404;-59
2022/02/13 16:12:02;;;;;;;;;26.50;22.50;;;;;2.63;100.00;102454.56;3724300;38;20339;-60
2022/02/13 16:14:30;;;;;;;;;18.75;18.50;;;;;2.60;100.00;102448.56;3724811;37;21386;-59
2022/02/13 16:16:59;;;;;;;;;18.75;18.75;;;;;2.64;100.00;102453.63;3724598;37;21383;-59
2022/02/13 16:19:27;;;;;;;;;17.50;15.00;;;;;2.59;100.00;102457.53;3724727;38;21264;-58
2022/02/13 16:21:57;;;;;;;;;15.25;15.00;;;;;2.52;100.00;102456.16;3724388;38;21532;-60
2022/02/13 16:24:25;;;;;;;;;22.50;21.25;;;;;2.48;100.00;102446.56;3724082;37;21492;-59
2022/02/13 16:26:54;;;;;;;;;19.50;18.00;;;;;2.43;100.00;102448.62;3724379;37;21260;-61
2022/02/13 16:29:29;;;;;;;;;19.00;17.50;;;;;2.42;100.00;102450.44;3725106;37;21323;-61
2022/02/13 16:32:01;;;;;;;;;15.75;14.75;;;;;2.33;100.00;102448.28;3724703;37;21512;-62
2022/02/13 16:34:28;;;;;;;;;19.75;17.00;;;;;2.36;100.00;102444.56;3724957;37;21307;-60
2022/02/13 16:36:57;;;;;;;;;20.25;18.25;;;;;2.33;100.00;102448.28;3724861;37;21440;-59
2022/02/13 16:39:26;;;;;;;;;16.00;15.75;;;;;2.30;100.00;102445.78;3724633;38;21325;-60
2022/02/13 16:41:53;;;;;;;;;23.25;21.00;;;;;2.31;100.00;102453.69;3723910;37;21333;-60
2022/02/13 16:44:21;;;;;;;;;22.50;20.00;;;;;2.24;100.00;102448.78;3723335;37;21238;-61
2022/02/13 16:46:51;;;;;;;;;16.00;15.00;;;;;2.22;100.00;102443.50;3724318;37;21454;-60
2022/02/13 16:49:18;;;;;;;;;28.00;25.50;;;;;2.22;100.00;102446.19;3724291;38;21239;-60
2022/02/13 16:51:45;;;;;;;;;25.75;23.75;;;;;2.18;100.00;102435.75;3724098;37;21315;-60
2022/02/13 16:54:16;;;;;;;;;23.00;20.50;;;;;2.13;100.00;102438.66;3723776;38;21218;-60
2022/02/13 16:56:44;;;;;;;;;31.25;30.25;;;;;2.14;100.00;102437.72;3724307;37;21313;-61
2022/02/13 16:59:14;;;;;;;;;27.25;22.00;;;;;2.03;100.00;102425.94;3724131;37;21284;-60
2022/02/13 17:01:44;;;;;;;;;22.25;19.25;;;;;2.11;100.00;102431.69;3724015;37;21297;-61
2022/02/13 17:04:14;;;;;;;;;17.75;17.00;;;;;2.12;100.00;102434.28;3724618;38;21444;-61
2022/02/13 17:06:43;;;;;;;;;20.25;18.50;;;;;2.03;100.00;102426.78;3725605;37;21283;-61
2022/02/13 17:09:11;;;;;;;;;18.00;17.25;;;;;2.02;100.00;102430.41;3725259;38;21284;-61
2022/02/13 17:11:38;;;;;;;;;18.50;16.75;;;;;2.02;100.00;102426.87;3724709;38;21236;-61
2022/02/13 17:14:09;;;;;;;;;19.25;17.75;;;;;1.96;100.00;102420.06;3724932;38;21494;-61
2022/02/13 17:16:37;;;;;;;;;17.25;17.00;;;;;1.92;100.00;102429.16;3724925;37;21232;-61
2022/02/13 17:19:04;;;;;;;;;21.50;20.25;;;;;1.89;100.00;102424.00;3724873;37;21254;-60
2022/02/13 17:21:37;;;;;;;;;19.25;17.00;;;;;1.85;100.00;102414.44;3725040;37;21272;-62
2022/02/13 17:24:08;;;;;;;;;17.00;15.25;;;;;1.87;100.00;102420.53;3724644;37;21306;-62
2022/02/13 17:26:35;;;;;;;;;15.50;15.25;;;;;1.85;100.00;102415.28;3724639;38;21184;-61
2022/02/13 17:29:03;;;;;;;;;21.00;20.25;;;;;1.84;100.00;102410.88;3724590;38;21432;-61
2022/02/13 17:31:30;;;;;;;;;21.75;19.75;;;;;1.78;100.00;102410.34;3724765;38;21266;-60
2022/02/13 17:33:58;;;;;;;;;20.00;17.75;;;;;1.75;100.00;102408.72;3724589;38;21376;-61
2022/02/13 17:36:28;;;;;;;;;16.50;14.25;;;;;1.72;100.00;102400.00;3724595;37;21265;-60
2022/02/13 17:38:57;;;;;;;;;17.75;17.25;;;;;1.72;100.00;102411.53;3724337;37;21247;-60
2022/02/13 17:41:26;;;;;;;;;20.00;14.75;;;;;1.67;100.00;102395.75;3724593;37;21264;-59
2022/02/13 17:43:55;;;;;;;;;15.25;13.75;;;;;1.58;100.00;102398.91;3724807;37;21426;-59
2022/02/13 17:46:26;;;;;;;;;16.50;15.00;;;;;1.54;100.00;102397.38;3724365;38;21252;-61
2022/02/13 17:48:53;;;;;;;;;15.50;15.50;;;;;1.51;100.00;102404.69;3724674;37;21397;-60
2022/02/13 17:51:21;;;;;;;;;19.50;18.00;;;;;1.51;100.00;102394.00;3724606;37;21216;-61
2022/02/13 17:53:49;;;;;;;;;21.50;18.25;;;;;1.46;100.00;102399.59;3724583;37;21228;-61
2022/02/13 17:56:17;;;;;;;;;18.00;16.00;;;;;1.42;100.00;102382.00;3724713;38;21217;-60
2022/02/13 17:58:45;;;;;;;;;18.75;18.00;;;;;1.42;100.00;102402.50;3724627;37;21214;-61
2022/02/13 18:01:18;;;;;;;;;21.50;19.75;;;;;1.36;100.00;102403.66;3724717;37;21352;-61
2022/02/13 18:03:47;;;;;;;;;26.50;22.75;;;;;1.27;100.00;102390.81;3724414;38;21210;-61
2022/02/13 18:06:16;;;;;;;;;24.75;23.00;;;;;1.27;100.00;102390.81;3724420;37;21144;-62
2022/02/13 18:08:47;;;;;;;;;25.50;21.75;;;;;1.22;100.00;102391.03;3724803;38;21135;-61
2022/02/13 18:11:15;;;;;;;;;33.75;31.00;;;;;1.21;100.00;102393.78;3724689;37;21310;-61
2022/02/13 18:13:42;;;;;;;;;24.25;21.25;;;;;1.21;100.00;102394.66;3724755;37;21193;-64
2022/02/13 18:16:11;;;;;;;;;29.50;24.00;;;;;1.16;100.00;102385.16;3725044;37;21335;-64
2022/02/13 18:18:38;;;;;;;;;25.00;21.75;;;;;1.00;100.00;102363.78;3724949;37;21284;-65
2022/02/13 18:21:06;;;;;;;;;16.25;16.00;;;;;1.08;100.00;102382.00;3724359;38;21206;-64
2022/02/13 18:23:33;;;;;;;;;22.50;19.50;;;;;1.04;100.00;102375.97;3724826;37;21085;-61
2022/02/13 18:26:02;;;;;;;;;25.25;22.75;;;;;1.03;100.00;102382.28;3724017;37;21198;-63
2022/02/13 18:28:30;;;;;;;;;24.50;22.25;;;;;0.93;100.00;102360.53;3723432;37;21157;-64
2022/02/13 18:30:59;;;;;;;;;26.50;21.00;;;;;0.92;100.00;102369.47;3723929;38;21225;-64
2022/02/13 18:33:29;;;;;;;;;21.75;21.50;;;;;0.88;100.00;102375.03;3724019;38;21292;-64
2022/02/13 18:35:57;;;;;;;;;28.00;24.50;;;;;0.87;100.00;102379.50;3724229;38;21099;-64
2022/02/13 18:38:28;;;;;;;;;26.25;23.50;;;;;0.77;100.00;102372.91;3723796;37;21328;-63
2022/02/13 18:40:55;;;;;;;;;25.00;23.25;;;;;0.75;100.00;102374.78;3724702;38;21079;-63
2022/02/13 18:43:24;;;;;;;;;27.75;24.25;;;;;0.72;100.00;102376.75;3724862;37;21075;-64
2022/02/13 18:45:53;;;;;;;;;29.25;27.50;;;;;0.63;100.00;102372.72;3723766;37;21301;-62
2022/02/13 18:48:21;;;;;;;;;23.00;22.50;;;;;0.59;100.00;102381.81;3724466;38;21151;-63
2022/02/13 18:50:51;;;;;;;;;28.50;26.00;;;;;0.54;100.00;102375.84;3724206;37;21130;-62
2022/02/13 18:53:18;;;;;;;;;31.00;26.75;;;;;0.51;100.00;102376.00;3723464;38;21159;-62